Time;durP1;ratioP1;P1;durP2;ratioP2;P2;SDS_P1;SDS_P2;PMS_P1;PMS_P2;Temp;Humidity;BMP_temperature;BMP_pressure;BME280_temperature;BME280_humidity;BME280_pressure;Samples;Min_cycle;Max_cycle;Signal;HPM_P1;HPM_P2
2023/12/26 00:01:54;;;;;;;0.00;0.00;;;;;;;7.86;93.92;148132.88;4977569;28;20288;-55
2023/12/26 00:04:23;;;;;;;0.00;0.00;;;;;;;7.85;94.30;148130.38;4976920;28;20249;-52
2023/12/26 00:06:51;;;;;;;0.03;0.03;;;;;;;7.85;94.03;148129.13;4977227;28;20629;-53
2023/12/26 00:09:18;;;;;;;0.00;0.00;;;;;;;7.82;94.05;148124.16;4976543;28;20260;-54
2023/12/26 00:11:46;;;;;;;0.00;0.00;;;;;;;7.80;93.85;148119.16;4977122;28;20788;-52
2023/12/26 00:14:16;;;;;;;0.00;0.00;;;;;;;7.78;93.92;148114.19;4982774;28;20257;-54
2023/12/26 00:16:43;;;;;;;0.00;0.00;;;;;;;7.79;93.96;148115.47;4981622;28;20234;-52
2023/12/26 00:19:10;;;;;;;0.00;0.00;;;;;;;7.79;93.43;148115.47;4979974;28;20221;-55
2023/12/26 00:21:38;;;;;;;0.00;0.00;;;;;;;7.76;93.55;148109.22;4980290;28;20233;-52
2023/12/26 00:24:07;;;;;;;0.00;0.00;;;;;;;7.69;95.04;148091.81;4981050;28;20272;-54
2023/12/26 00:26:37;;;;;;;0.00;0.00;;;;;;;7.63;94.75;148076.91;4980623;28;20217;-52
2023/12/26 00:29:04;;;;;;;0.00;0.00;;;;;;;7.55;95.09;148058.28;4983527;28;20234;-54
2023/12/26 00:31:30;;;;;;;0.00;0.00;;;;;;;7.56;95.49;148059.50;4999453;28;20224;-53
2023/12/26 00:33:57;;;;;;;0.00;0.00;;;;;;;7.52;95.70;148050.81;4981500;28;20683;-52
2023/12/26 00:36:24;;;;;;;0.00;0.00;;;;;;;7.55;95.18;148058.28;4982182;28;20364;-52
2023/12/26 00:38:51;;;;;;;0.00;0.00;;;;;;;7.57;95.10;148063.25;5000061;28;20313;-54
2023/12/26 00:41:19;;;;;;;0.00;0.00;;;;;;;7.61;95.42;148073.19;4980542;28;20656;-52
2023/12/26 00:43:46;;;;;;;0.00;0.00;;;;;;;7.64;94.64;148080.66;4974807;28;20299;-55
2023/12/26 00:46:14;;;;;;;0.00;0.00;;;;;;;7.66;94.80;148085.63;4986367;28;20237;-52
2023/12/26 00:48:41;;;;;;;0.00;0.00;;;;;;;7.67;93.57;148088.13;4979978;28;20225;-52
2023/12/26 00:51:07;;;;;;;0.00;0.00;;;;;;;7.72;92.88;148099.28;4996520;28;20801;-52
2023/12/26 00:53:34;;;;;;;0.00;0.00;;;;;;;7.72;93.25;148098.06;4976674;28;20320;-55
2023/12/26 00:56:01;;;;;;;0.00;0.00;;;;;;;7.74;91.79;148103.03;4986565;28;20225;-54
2023/12/26 00:58:29;;;;;;;0.00;0.00;;;;;;;7.76;92.81;148109.22;4999496;28;20324;-52
2023/12/26 01:00:55;;;;;;;0.00;0.00;;;;;;;7.72;93.44;148098.06;4996704;28;20308;-52
2023/12/26 01:03:23;;;;;;;0.00;0.00;;;;;;;7.72;93.59;148099.28;4982478;28;20589;-52
2023/12/26 01:05:50;;;;;;;0.10;0.10;;;;;;;7.76;92.70;148108.00;4994498;28;20225;-52
2023/12/26 01:08:19;;;;;;;0.00;0.00;;;;;;;7.81;91.83;148121.66;4984622;28;20222;-52
2023/12/26 01:10:46;;;;;;;0.00;0.00;;;;;;;7.81;92.54;148120.44;4979690;28;20238;-55
2023/12/26 01:13:12;;;;;;;0.00;0.00;;;;;;;7.78;92.14;148112.97;4984359;28;20248;-54
2023/12/26 01:15:41;;;;;;;0.00;0.00;;;;;;;7.74;92.82;148104.25;4993664;28;20246;-55
2023/12/26 01:18:08;;;;;;;0.00;0.00;;;;;;;7.75;93.45;148106.75;4995372;28;20309;-54
2023/12/26 01:20:35;;;;;;;0.00;0.00;;;;;;;7.81;91.83;148120.44;4981575;28;20233;-52
2023/12/26 01:23:02;;;;;;;0.00;0.00;;;;;;;7.83;92.80;148126.63;5000446;28;20324;-52
2023/12/26 01:25:29;;;;;;;0.00;0.00;;;;;;;7.83;91.72;148126.63;4991699;28;20224;-54
2023/12/26 01:27:56;;;;;;;0.00;0.00;;;;;;;7.79;92.25;148115.47;4984787;28;20234;-53
2023/12/26 01:30:23;;;;;;;0.00;0.00;;;;;;;7.79;92.83;148116.69;4976805;28;20570;-54
2023/12/26 01:32:51;;;;;;;0.00;0.00;;;;;;;7.79;92.67;148116.69;4979600;28;20234;-52
2023/12/26 01:35:18;;;;;;;0.00;0.00;;;;;;;7.72;93.75;148098.06;4980138;28;20246;-54
2023/12/26 01:37:45;;;;;;;0.00;0.00;;;;;;;7.72;91.89;148099.28;4978471;28;20257;-52
2023/12/26 01:40:12;;;;;;;0.00;0.00;;;;;;;7.74;92.83;148104.25;4985290;28;20633;-54
2023/12/26 01:42:41;;;;;;;0.00;0.00;;;;;;;7.76;92.01;148109.22;4992103;28;20241;-54
2023/12/26 01:45:08;;;;;;;0.00;0.00;;;;;;;7.73;92.31;148101.75;4984006;28;20686;-55
2023/12/26 01:47:38;;;;;;;0.00;0.00;;;;;;;7.75;91.72;148106.75;4976661;28;20646;-53
2023/12/26 01:50:07;;;;;;;0.00;0.00;;;;;;;7.78;91.02;148114.19;4985090;28;20236;-52
2023/12/26 01:52:38;;;;;;;0.00;0.00;;;;;;;7.73;92.58;148100.56;4998126;28;20224;-53
2023/12/26 01:55:06;;;;;;;0.00;0.00;;;;;;;7.77;91.42;148110.50;4994711;28;20227;-54
2023/12/26 01:57:34;;;;;;;3.57;1.37;;;;;;;7.79;90.84;148116.69;4977865;28;20245;-52
2023/12/26 02:00:02;;;;;;;5.30;1.60;;;;;;;7.77;90.28;148111.72;4977697;28;20253;-52
2023/12/26 02:02:40;;;;;;;4.97;1.60;;;;;;;7.76;91.52;148109.22;4977304;28;20252;-52
2023/12/26 02:05:08;;;;;;;5.23;1.60;;;;;;;7.82;90.09;148122.94;4979351;28;20213;-55
2023/12/26 02:07:35;;;;;;;4.03;1.60;;;;;;;7.80;89.57;148117.97;4975910;28;20248;-53
2023/12/26 02:10:04;;;;;;;6.47;1.70;;;;;;;7.81;89.56;148121.66;4977082;28;21209;-52
2023/12/26 02:12:31;;;;;;;6.13;1.73;;;;;;;7.80;90.54;148119.16;4973488;28;20222;-52
2023/12/26 02:14:58;;;;;;;4.93;1.40;;;;;;;7.80;90.66;148117.97;4983900;28;20624;-52
2023/12/26 02:17:26;;;;;;;4.33;1.53;;;;;;;7.76;89.85;148108.00;4979783;28;20217;-54
2023/12/26 02:19:53;;;;;;;1.77;1.20;;;;;;;7.78;90.13;148114.19;4982866;28;20810;-55
2023/12/26 02:22:23;;;;;;;4.17;1.17;;;;;;;7.82;89.13;148122.94;4976464;28;20240;-52
2023/12/26 02:24:51;;;;;;;4.77;1.90;;;;;;;7.84;89.23;148127.91;4983729;28;20226;-54
2023/12/26 02:27:21;;;;;;;4.03;1.37;;;;;;;7.83;88.92;148126.63;4980524;28;20320;-53
2023/12/26 02:29:50;;;;;;;3.60;1.63;;;;;;;7.81;89.58;148121.66;4982202;28;20258;-54
2023/12/26 02:32:19;;;;;;;3.40;1.50;;;;;;;7.83;88.33;148126.63;4983366;28;20221;-54
2023/12/26 02:34:48;;;;;;;4.53;1.40;;;;;;;7.89;86.99;148140.34;4976433;28;20681;-54
2023/12/26 02:37:15;;;;;;;3.43;1.20;;;;;;;7.90;87.46;148142.81;4978645;28;20225;-54
2023/12/26 02:39:43;;;;;;;4.80;1.43;;;;;;;7.89;88.45;148139.06;4988381;28;20306;-53
2023/12/26 02:42:12;;;;;;;5.50;1.30;;;;;;;7.89;88.08;148139.06;4995964;28;20234;-54
2023/12/26 02:44:39;;;;;;;3.87;1.50;;;;;;;7.85;88.57;148129.13;4977127;28;20248;-55
2023/12/26 02:47:06;;;;;;;6.03;1.57;;;;;;;7.88;88.06;148136.56;4979396;28;20308;-54
2023/12/26 02:49:38;;;;;;;9.97;1.77;;;;;;;7.85;88.14;148130.38;4984468;28;20772;-55
2023/12/26 02:52:05;;;;;;;6.17;1.93;;;;;;;7.87;87.55;148135.34;4993274;28;20329;-54
2023/12/26 02:54:36;;;;;;;2.87;1.30;;;;;;;7.92;87.26;148147.78;4991815;28;20224;-53
2023/12/26 02:57:02;;;;;;;3.93;1.40;;;;;;;7.92;86.76;148146.53;4979129;28;20232;-54
2023/12/26 02:59:31;;;;;;;6.87;1.57;;;;;;;7.96;86.82;148156.47;4975584;28;20225;-54
2023/12/26 03:01:58;;;;;;;4.43;1.30;;;;;;;7.98;85.45;148161.44;4995928;28;20257;-55
2023/12/26 03:04:26;;;;;;;4.80;1.13;;;;;;;8.02;86.02;148170.13;4975663;28;20233;-52
2023/12/26 03:06:52;;;;;;;4.77;1.63;;;;;;;7.96;86.10;148157.69;4973929;28;20226;-52
2023/12/26 03:09:20;;;;;;;4.30;1.90;;;;;;;7.99;86.40;148163.94;4975814;28;20280;-52
2023/12/26 03:11:47;;;;;;;4.23;1.50;;;;;;;8.07;84.71;148183.81;4977002;28;20255;-52
2023/12/26 03:14:15;;;;;;;4.00;1.20;;;;;;;8.08;84.79;148186.31;4976555;28;20222;-53
2023/12/26 03:16:44;;;;;;;4.67;1.33;;;;;;;8.09;85.31;148187.53;4991361;28;20229;-53
2023/12/26 03:19:11;;;;;;;6.67;1.50;;;;;;;8.08;84.16;148186.31;4995232;28;20221;-52
2023/12/26 03:21:38;;;;;;;4.87;1.20;;;;;;;8.08;84.07;148186.31;4988990;28;20565;-54
2023/12/26 03:24:05;;;;;;;7.43;2.10;;;;;;;8.10;84.68;148190.03;4980600;28;20262;-53
2023/12/26 03:26:32;;;;;;;4.43;1.33;;;;;;;8.13;83.55;148197.47;4977704;28;20230;-55
2023/12/26 03:28:59;;;;;;;4.37;1.47;;;;;;;8.07;85.31;148183.81;4994399;28;20288;-52
2023/12/26 03:31:25;;;;;;;5.63;1.87;;;;;;;8.07;84.98;148182.56;4974039;28;20232;-53
2023/12/26 03:33:55;;;;;;;6.17;1.63;;;;;;;8.07;84.48;148182.56;4975596;28;20243;-52
2023/12/26 03:36:21;;;;;;;5.33;1.23;;;;;;;8.04;85.54;148175.09;4975473;28;20289;-55
2023/12/26 03:38:48;;;;;;;3.93;2.00;;;;;;;8.06;84.40;148181.34;4978442;28;20231;-53
2023/12/26 03:41:15;;;;;;;5.30;1.53;;;;;;;8.06;84.66;148180.06;4977726;28;20235;-53
2023/12/26 03:43:41;;;;;;;4.37;1.57;;;;;;;8.06;85.48;148180.06;4981666;28;20233;-53
2023/12/26 03:46:08;;;;;;;5.50;1.50;;;;;;;8.06;85.02;148181.34;4993622;28;20221;-52
2023/12/26 03:48:35;;;;;;;6.40;1.33;;;;;;;8.10;84.57;148191.28;4987886;28;20253;-54
2023/12/26 03:51:03;;;;;;;5.07;1.33;;;;;;;8.06;85.21;148180.06;4995443;28;20680;-52
2023/12/26 03:53:30;;;;;;;6.27;1.50;;;;;;;8.07;84.57;148183.81;4972434;28;20308;-54
2023/12/26 03:55:57;;;;;;;5.57;1.40;;;;;;;8.08;84.63;148186.31;4992486;28;20331;-52
2023/12/26 03:58:23;;;;;;;4.57;1.37;;;;;;;8.05;84.83;148178.84;4990680;28;20241;-54
2023/12/26 04:00:51;;;;;;;5.27;1.60;;;;;;;8.10;83.38;148191.28;4993696;28;20341;-53
2023/12/26 04:03:17;;;;;;;8.47;1.43;;;;;;;8.13;83.72;148198.75;4976164;28;20743;-52
2023/12/26 04:05:44;;;;;;;3.27;1.10;;;;;;;8.12;83.85;148196.25;4974636;28;20473;-55
2023/12/26 04:08:12;;;;;;;5.20;1.27;;;;;;;8.13;84.43;148198.75;4992011;28;20224;-52
2023/12/26 04:10:43;;;;;;;5.43;1.60;;;;;;;8.15;84.06;148201.22;4974258;28;20237;-54
2023/12/26 04:13:09;;;;;;;4.47;1.73;;;;;;;8.09;85.21;148187.53;4992023;28;20221;-52
2023/12/26 04:15:37;;;;;;;3.83;1.33;;;;;;;8.08;84.12;148186.31;4974951;28;20218;-53
2023/12/26 04:18:04;;;;;;;2.13;1.33;;;;;;;8.16;83.43;148203.72;4977139;28;20241;-51
2023/12/26 04:20:31;;;;;;;5.27;1.37;;;;;;;8.15;84.05;148202.47;4976944;28;20222;-55
2023/12/26 04:22:58;;;;;;;6.93;1.53;;;;;;;8.19;83.18;148212.41;4994106;28;20648;-51
2023/12/26 04:25:26;;;;;;;3.30;1.47;;;;;;;8.16;84.41;148203.72;4972699;28;20228;-52
2023/12/26 04:27:53;;;;;;;4.57;1.37;;;;;;;8.17;83.09;148206.22;4975516;28;20257;-52
2023/12/26 04:33:02;;;;;;;5.77;1.60;;;;;;;8.19;83.30;148211.19;4964415;23;20240;-55
2023/12/26 04:35:30;;;;;;;4.30;1.47;;;;;;;8.25;81.57;148227.34;4924502;28;20523;-55
2023/12/26 04:37:57;;;;;;;8.17;2.60;;;;;;;8.21;83.27;148217.38;4929575;29;20290;-54
2023/12/26 04:40:26;;;;;;;5.73;1.53;;;;;;;8.21;82.73;148217.38;4936625;28;20223;-54
2023/12/26 04:42:53;;;;;;;5.37;1.97;;;;;;;8.22;83.25;148219.88;4939061;28;20790;-55
2023/12/26 04:45:19;;;;;;;6.93;1.50;;;;;;;8.24;82.09;148223.63;4924814;28;20230;-52
2023/12/26 04:47:46;;;;;;;4.33;1.27;;;;;;;8.23;82.56;148222.34;4923002;28;20242;-55
2023/12/26 04:50:13;;;;;;;5.60;1.30;;;;;;;8.22;83.79;148219.88;4926775;28;20229;-53
2023/12/26 04:52:40;;;;;;;9.67;1.60;;;;;;;8.25;81.96;148227.34;4919180;28;20254;-55
2023/12/26 04:55:08;;;;;;;3.70;1.33;;;;;;;8.30;81.75;148237.28;4953328;28;20227;-55
2023/12/26 04:57:36;;;;;;;5.17;1.10;;;;;;;8.29;82.83;148236.06;4941192;28;20235;-56
2023/12/26 05:00:03;;;;;;;7.53;1.60;;;;;;;8.29;82.43;148236.06;4931020;28;20227;-53
2023/12/26 05:02:30;;;;;;;6.27;1.50;;;;;;;8.24;83.32;148223.63;4939507;28;20286;-56
2023/12/26 05:04:57;;;;;;;7.03;1.73;;;;;;;8.24;82.84;148224.84;4939225;28;20339;-55
2023/12/26 05:07:24;;;;;;;6.57;1.70;;;;;;;8.22;82.87;148219.88;4948257;28;21128;-55
2023/12/26 05:09:51;;;;;;;6.83;1.37;;;;;;;8.24;82.92;148223.63;4946179;28;20234;-56
2023/12/26 05:12:17;;;;;;;6.40;1.53;;;;;;;8.20;82.80;148213.66;4925030;28;20230;-56
2023/12/26 05:14:45;;;;;;;4.60;1.50;;;;;;;8.17;83.52;148207.44;4937526;28;20382;-54
2023/12/26 05:17:13;;;;;;;6.20;1.70;;;;;;;8.20;83.38;148214.91;4930428;28;20231;-56
2023/12/26 05:19:40;;;;;;;4.03;1.50;;;;;;;8.23;82.95;148221.13;4927450;28;20250;-55
2023/12/26 05:22:07;;;;;;;4.80;1.50;;;;;;;8.26;82.69;148228.59;4929883;28;20236;-56
2023/12/26 05:24:35;;;;;;;8.43;1.77;;;;;;;8.28;82.99;148234.78;4926460;28;20763;-52
2023/12/26 05:27:02;;;;;;;5.07;1.40;;;;;;;8.27;83.36;148231.09;4943317;28;20720;-54
2023/12/26 05:29:29;;;;;;;4.87;1.70;;;;;;;8.21;83.65;148217.38;4927576;28;20237;-55
2023/12/26 05:31:57;;;;;;;6.87;1.13;;;;;;;8.19;83.56;148211.19;4941214;28;20299;-56
2023/12/26 05:34:24;;;;;;;9.13;1.70;;;;;;;8.23;82.79;148221.13;4917274;28;20553;-53
2023/12/26 05:36:51;;;;;;;5.97;1.90;;;;;;;8.22;83.17;148218.66;4927076;28;20314;-53
2023/12/26 05:39:17;;;;;;;6.57;1.80;;;;;;;8.23;82.60;148221.13;4926049;28;20227;-55
2023/12/26 05:41:44;;;;;;;8.83;1.70;;;;;;;8.23;83.26;148221.13;4937888;28;20243;-56
2023/12/26 05:44:12;;;;;;;11.50;2.80;;;;;;;8.25;82.23;148227.34;4942691;28;20322;-56
2023/12/26 05:46:38;;;;;;;5.03;1.30;;;;;;;8.23;82.98;148222.34;4941195;28;20231;-57
2023/12/26 05:49:07;;;;;;;5.17;1.60;;;;;;;8.22;83.61;148218.66;4920599;28;20278;-56
2023/12/26 05:51:34;;;;;;;5.37;1.80;;;;;;;8.23;83.14;148221.13;4936560;28;20310;-54
2023/12/26 05:54:00;;;;;;;8.37;1.77;;;;;;;8.21;83.77;148217.38;4928559;28;20664;-57
2023/12/26 05:56:27;;;;;;;6.40;1.50;;;;;;;8.16;84.97;148203.72;4924476;28;20310;-57
2023/12/26 05:58:54;;;;;;;6.27;1.60;;;;;;;8.23;84.25;148222.34;4941645;28;20714;-56
2023/12/26 06:01:21;;;;;;;5.63;1.70;;;;;;;8.22;84.58;148218.66;4937368;28;20322;-54
2023/12/26 06:03:47;;;;;;;6.30;1.70;;;;;;;8.26;83.29;148228.59;4940458;28;20319;-54
2023/12/26 06:06:16;;;;;;;5.10;1.10;;;;;;;8.27;83.26;148231.09;4921632;29;20236;-53
2023/12/26 06:08:43;;;;;;;6.97;1.40;;;;;;;8.30;82.65;148237.28;4926781;28;20243;-53
2023/12/26 06:11:10;;;;;;;7.23;1.73;;;;;;;8.28;82.46;148233.56;4939533;28;20223;-53
2023/12/26 06:13:37;;;;;;;10.00;2.10;;;;;;;8.30;81.91;148237.28;4951492;28;20238;-57
2023/12/26 06:16:05;;;;;;;4.13;1.40;;;;;;;8.31;82.71;148239.75;4939390;28;20582;-55
2023/12/26 06:18:33;;;;;;;9.50;1.73;;;;;;;8.27;82.32;148231.09;4925111;28;20216;-57
2023/12/26 06:21:00;;;;;;;10.30;1.97;;;;;;;8.33;81.90;148244.75;4928311;28;20250;-53
2023/12/26 06:23:28;;;;;;;5.77;1.60;;;;;;;8.32;81.61;148242.25;4926400;28;20226;-53
2023/12/26 06:25:55;;;;;;;5.13;1.53;;;;;;;8.28;82.37;148233.56;4929628;28;20227;-57
2023/12/26 06:28:22;;;;;;;5.40;1.67;;;;;;;8.28;82.23;148233.56;4919411;28;20306;-56
2023/12/26 06:30:49;;;;;;;7.57;1.67;;;;;;;8.28;82.07;148233.56;4941185;28;20290;-53
2023/12/26 06:33:16;;;;;;;7.60;2.97;;;;;;;8.30;82.58;148237.28;4925073;28;20235;-56
2023/12/26 06:35:42;;;;;;;9.47;3.13;;;;;;;8.26;82.61;148228.59;4933143;28;20245;-53
2023/12/26 06:38:12;;;;;;;7.63;4.40;;;;;;;8.26;83.15;148228.59;4926963;28;20222;-56
2023/12/26 06:40:41;;;;;;;4.73;2.57;;;;;;;8.24;83.37;148224.84;4936633;28;20267;-55
2023/12/26 06:43:08;;;;;;;3.37;2.00;;;;;;;8.27;82.45;148231.09;4939029;28;20304;-55
2023/12/26 06:45:35;;;;;;;7.47;2.53;;;;;;;8.26;82.30;148228.59;4953545;28;20234;-54
2023/12/26 06:48:02;;;;;;;6.70;1.60;;;;;;;8.24;82.55;148223.63;4940357;28;20236;-55
2023/12/26 06:50:29;;;;;;;6.57;1.50;;;;;;;8.27;83.00;148231.09;4925661;28;20227;-54
2023/12/26 06:52:56;;;;;;;5.47;1.80;;;;;;;8.31;82.27;148241.03;4939663;28;20232;-57
2023/12/26 06:55:22;;;;;;;12.37;2.10;;;;;;;8.26;82.23;148229.81;4920947;28;20231;-55
2023/12/26 06:57:51;;;;;;;8.30;1.80;;;;;;;8.29;81.41;148236.06;4938771;28;20231;-55
2023/12/26 07:00:19;;;;;;;9.00;1.53;;;;;;;8.24;83.10;148224.84;4927387;28;20238;-53
2023/12/26 07:02:45;;;;;;;6.25;1.70;;;;;;;8.33;81.83;148246.00;4947428;28;20910;-56
2023/12/26 07:05:12;;;;;;;4.73;1.70;;;;;;;8.33;82.41;148246.00;4923500;28;20238;-56
2023/12/26 07:07:39;;;;;;;7.77;1.60;;;;;;;8.34;80.94;148247.22;4936590;28;24494;-55
2023/12/26 07:10:07;;;;;;;5.17;1.93;;;;;;;8.41;81.27;148264.63;4940328;28;20325;-53
2023/12/26 07:12:33;;;;;;;4.63;1.50;;;;;;;8.42;80.97;148268.41;4939024;28;20239;-54
2023/12/26 07:15:01;;;;;;;3.57;1.43;;;;;;;8.44;79.79;148272.09;4938895;28;20233;-55
2023/12/26 07:17:28;;;;;;;7.67;2.43;;;;;;;8.43;80.07;148269.63;4936734;28;20639;-55
2023/12/26 07:19:55;;;;;;;5.03;1.50;;;;;;;8.49;80.08;148283.31;4940312;28;20325;-55
2023/12/26 07:22:22;;;;;;;23.77;10.33;;;;;;;8.45;80.52;148273.38;4935728;28;20309;-55
2023/12/26 07:24:48;;;;;;;5.00;2.30;;;;;;;8.45;80.35;148274.59;4938796;28;20790;-55
2023/12/26 07:27:15;;;;;;;6.40;2.50;;;;;;;8.47;80.39;148279.56;4939487;28;20319;-53
2023/12/26 07:29:42;;;;;;;12.20;6.70;;;;;;;8.44;80.22;148272.09;4936341;28;20775;-56
2023/12/26 07:32:10;;;;;;;5.57;1.80;;;;;;;8.47;80.72;148278.34;4938758;28;20318;-55
2023/12/26 07:34:37;;;;;;;6.97;1.67;;;;;;;8.49;80.64;148284.59;4936981;28;20231;-56
2023/12/26 07:37:04;;;;;;;9.03;2.93;;;;;;;8.50;79.59;148285.81;4937269;28;20313;-56
2023/12/26 07:39:34;;;;;;;8.77;5.13;;;;;;;8.54;79.94;148297.03;4935969;28;20230;-55
2023/12/26 07:42:01;;;;;;;7.50;2.33;;;;;;;8.52;79.37;148292.06;4942824;28;20803;-54
2023/12/26 07:44:30;;;;;;;8.50;3.87;;;;;;;8.45;80.47;148273.38;4924514;28;20219;-54
2023/12/26 07:46:57;;;;;;;10.80;6.00;;;;;;;8.48;79.71;148282.06;4934802;28;20294;-54
2023/12/26 07:49:25;;;;;;;10.60;4.43;;;;;;;8.54;79.29;148295.75;4936788;28;20223;-53
2023/12/26 07:51:52;;;;;;;6.33;1.77;;;;;;;8.51;79.18;148289.56;4939644;28;20231;-53
2023/12/26 07:54:19;;;;;;;5.60;1.60;;;;;;;8.50;79.05;148285.81;4939876;28;20315;-53
2023/12/26 07:56:45;;;;;;;6.67;1.93;;;;;;;8.50;79.58;148287.06;4939374;28;20309;-55
2023/12/26 07:59:13;;;;;;;9.17;2.63;;;;;;;8.53;79.42;148293.28;4937957;28;20318;-55
2023/12/26 08:01:40;;;;;;;7.23;2.40;;;;;;;8.50;79.90;148285.81;4935458;28;20256;-52
2023/12/26 08:04:07;;;;;;;5.10;2.30;;;;;;;8.48;80.74;148280.84;4940959;28;20318;-55
2023/12/26 08:06:35;;;;;;;25.07;11.03;;;;;;;8.50;80.05;148285.81;4938457;28;20683;-56
2023/12/26 08:09:02;;;;;;;22.37;8.67;;;;;;;8.50;80.43;148287.06;4941007;28;20317;-55
2023/12/26 08:11:29;;;;;;;6.87;2.43;;;;;;;8.52;79.73;148290.78;4937314;28;20295;-54
2023/12/26 08:13:55;;;;;;;16.90;6.97;;;;;;;8.52;80.19;148290.78;4939036;28;20239;-54
2023/12/26 08:16:22;;;;;;;9.20;4.07;;;;;;;8.55;79.68;148299.50;4937930;28;20228;-53
2023/12/26 08:18:49;;;;;;;9.63;3.73;;;;;;;8.53;79.13;148293.28;4938901;28;20249;-56
2023/12/26 08:21:15;;;;;;;6.80;2.63;;;;;;;8.51;79.47;148289.56;4936658;28;20315;-55
2023/12/26 08:23:43;;;;;;;12.52;4.32;;;;;;;8.51;79.59;148288.28;4936809;28;20941;-53
2023/12/26 08:26:10;;;;;;;12.27;4.40;;;;;;;8.51;80.72;148289.56;4938860;28;20818;-51
2023/12/26 08:28:37;;;;;;;14.60;5.70;;;;;;;8.53;79.63;148294.53;4936803;28;20254;-56
2023/12/26 08:31:04;;;;;;;19.40;6.63;;;;;;;8.53;80.85;148294.53;4940382;28;20322;-52
2023/12/26 08:33:31;;;;;;;6.43;2.10;;;;;;;8.48;81.20;148282.06;4938972;28;20773;-54
2023/12/26 08:35:58;;;;;;;17.83;7.73;;;;;;;8.47;81.10;148279.56;4944789;28;20247;-53
2023/12/26 08:38:24;;;;;;;8.73;2.87;;;;;;;8.53;79.50;148294.53;4937912;28;20322;-53
2023/12/26 08:40:53;;;;;;;8.53;2.87;;;;;;;8.53;80.19;148293.28;4940749;28;20263;-55
2023/12/26 08:43:19;;;;;;;13.97;4.53;;;;;;;8.51;80.52;148289.56;4940507;28;20313;-54
2023/12/26 08:45:46;;;;;;;8.23;2.07;;;;;;;8.54;80.63;148295.75;4938337;28;20247;-53
2023/12/26 08:48:13;;;;;;;5.20;2.17;;;;;;;8.54;81.17;148295.75;4943058;28;20319;-52
2023/12/26 08:50:40;;;;;;;4.77;1.40;;;;;;;8.51;81.18;148289.56;4940521;28;20754;-54
2023/12/26 08:53:06;;;;;;;6.63;2.80;;;;;;;8.52;81.82;148290.78;4941913;28;20242;-55
2023/12/26 08:55:33;;;;;;;5.90;2.63;;;;;;;8.52;82.14;148290.78;4940793;28;20224;-52
2023/12/26 08:58:04;;;;;;;5.10;1.87;;;;;;;8.46;82.64;148275.84;4944505;28;20285;-55
2023/12/26 09:00:31;;;;;;;4.10;1.80;;;;;;;8.39;83.67;148260.94;4938629;28;20647;-53
2023/12/26 09:02:58;;;;;;;5.50;2.13;;;;;;;8.40;85.16;148262.16;4941986;28;20231;-52
2023/12/26 09:05:24;;;;;;;6.50;1.80;;;;;;;8.38;84.84;148257.19;4939364;28;20256;-53
2023/12/26 09:07:51;;;;;;;8.97;2.47;;;;;;;8.39;85.88;148259.66;4943056;28;20245;-53
2023/12/26 09:10:18;;;;;;;8.37;1.90;;;;;;;8.33;87.74;148244.75;4942132;28;20706;-55
2023/12/26 09:12:44;;;;;;;5.93;1.83;;;;;;;8.22;88.31;148219.88;4942493;28;20262;-52
2023/12/26 09:15:13;;;;;;;6.23;1.90;;;;;;;8.25;89.55;148226.09;4941365;28;20232;-52
2023/12/26 09:17:40;;;;;;;13.43;5.60;;;;;;;8.18;90.77;148208.69;4940679;28;20313;-51
2023/12/26 09:20:07;;;;;;;5.70;2.20;;;;;;;8.10;91.56;148191.28;4941588;28;20730;-54
2023/12/26 09:22:34;;;;;;;7.63;2.30;;;;;;;8.13;90.55;148198.75;4940467;28;20227;-52
2023/12/26 09:25:00;;;;;;;7.30;1.80;;;;;;;8.22;91.86;148219.88;4941172;28;20750;-56
2023/12/26 09:27:27;;;;;;;5.40;1.50;;;;;;;8.09;95.03;148188.81;4940728;28;20318;-55
2023/12/26 09:29:54;;;;;;;7.93;2.23;;;;;;;8.01;96.39;148168.91;4942860;28;20761;-54
2023/12/26 09:32:22;;;;;;;8.07;2.17;;;;;;;7.98;96.33;148162.66;4940250;28;20237;-55
2023/12/26 09:34:48;;;;;;;5.20;2.20;;;;;;;7.90;98.22;148141.56;4940202;28;20266;-55
2023/12/26 09:37:15;;;;;;;7.60;2.50;;;;;;;7.93;98.15;148150.28;4941878;28;20230;-56
2023/12/26 09:39:42;;;;;;;29.77;12.03;;;;;;;7.91;97.85;148144.03;4938765;28;20364;-55
2023/12/26 09:42:11;;;;;;;13.73;3.33;;;;;;;7.97;98.53;148158.97;4940714;28;20246;-53
2023/12/26 09:44:38;;;;;;;26.33;11.47;;;;;;;7.97;98.72;148160.19;4936177;28;20679;-52
2023/12/26 09:47:06;;;;;;;26.53;9.63;;;;;;;7.99;98.27;148163.94;4941171;28;20310;-54
2023/12/26 09:49:36;;;;;;;32.53;11.63;;;;;;;8.01;98.45;148168.91;4937712;28;20251;-55
2023/12/26 09:52:03;;;;;;;10.77;5.90;;;;;;;8.00;98.66;148166.41;4941313;28;20231;-53
2023/12/26 09:54:33;;;;;;;9.83;2.93;;;;;;;8.04;98.41;148176.38;4939740;28;20645;-53
2023/12/26 09:57:00;;;;;;;6.27;2.30;;;;;;;7.97;98.33;148160.19;4940130;28;20691;-55
2023/12/26 09:59:27;;;;;;;9.03;2.73;;;;;;;8.02;98.43;148171.41;4936717;28;20762;-54
2023/12/26 10:01:54;;;;;;;8.87;3.00;;;;;;;7.90;99.65;148142.81;4939499;28;20227;-55
2023/12/26 10:04:21;;;;;;;7.83;2.00;;;;;;;7.81;100.00;148121.66;4926417;28;20594;-53
2023/12/26 10:06:49;;;;;;;6.57;2.13;;;;;;;7.97;99.06;148158.97;4939181;28;20321;-52
2023/12/26 10:09:18;;;;;;;6.77;1.90;;;;;;;7.96;100.00;148156.47;4936993;28;20655;-55
2023/12/26 10:11:46;;;;;;;6.20;2.00;;;;;;;7.87;99.45;148135.34;4939764;28;20318;-52
2023/12/26 10:14:13;;;;;;;5.33;1.60;;;;;;;7.91;100.00;148144.03;4939407;28;20237;-55
2023/12/26 10:16:40;;;;;;;6.80;1.87;;;;;;;7.97;97.42;148158.97;4937962;28;20250;-52
2023/12/26 10:19:10;;;;;;;8.57;2.13;;;;;;;7.95;96.96;148153.97;4940141;28;20307;-52
2023/12/26 10:21:37;;;;;;;10.40;2.83;;;;;;;8.05;96.13;148178.84;4937345;28;20235;-53
2023/12/26 10:24:10;;;;;;;5.90;2.10;;;;;;;8.09;94.39;148188.81;4940293;28;20239;-54
2023/12/26 10:26:36;;;;;;;5.10;1.90;;;;;;;8.15;93.66;148202.47;4938390;28;20226;-53
2023/12/26 10:29:03;;;;;;;4.40;1.47;;;;;;;8.21;90.94;148216.16;4939435;28;20718;-53
2023/12/26 10:31:30;;;;;;;4.93;2.23;;;;;;;8.25;90.74;148226.09;4933840;28;20231;-55
2023/12/26 10:33:57;;;;;;;3.30;1.60;;;;;;;8.26;90.86;148228.59;4938817;28;20246;-55
2023/12/26 10:36:23;;;;;;;6.57;1.63;;;;;;;8.42;90.67;148267.13;4938623;28;20297;-53
2023/12/26 10:38:50;;;;;;;10.70;5.40;;;;;;;8.52;89.88;148292.06;4939933;28;20342;-54
2023/12/26 10:41:25;;;;;;;7.47;3.50;;;;;;;8.61;88.94;148311.94;4942147;28;20223;-52
2023/12/26 10:43:55;;;;;;;8.33;2.17;;;;;;;8.61;88.38;148313.19;4939342;28;20674;-56
2023/12/26 10:46:22;;;;;;;10.37;4.57;;;;;;;8.65;89.66;148321.91;4937928;28;20228;-54
2023/12/26 10:48:52;;;;;;;8.97;3.20;;;;;;;8.71;87.42;148338.06;4939638;28;20259;-53
2023/12/26 10:51:24;;;;;;;3.30;1.63;;;;;;;8.69;88.70;148333.06;4940149;28;20227;-54
2023/12/26 10:54:00;;;;;;;8.47;2.80;;;;;;;8.69;88.69;148331.84;4938006;28;20623;-53
2023/12/26 10:56:30;;;;;;;4.67;1.77;;;;;;;8.74;86.83;148344.28;4937731;28;20242;-54
2023/12/26 10:58:58;;;;;;;6.60;1.63;;;;;;;8.75;86.67;148345.50;4930965;28;20232;-55
2023/12/26 13:51:24;;;;;;;7.73;1.80;;;;;;;8.16;100.00;148203.72;4937740;28;20266;-56
2023/12/26 13:53:51;;;;;;;4.93;1.93;;;;;;;8.16;100.00;148203.72;4939131;28;20294;-53
2023/12/26 13:56:19;;;;;;;2.53;1.57;;;;;;;8.11;100.00;148193.78;4943203;28;20567;-56
2023/12/26 13:58:45;;;;;;;5.60;2.20;;;;;;;8.09;100.00;148188.81;4939800;28;20241;-53
2023/12/26 14:01:11;;;;;;;4.70;1.80;;;;;;;8.09;100.00;148187.53;4943028;28;20278;-56
2023/12/26 14:03:38;;;;;;;7.93;1.70;;;;;;;8.09;100.00;148187.53;4939042;28;20758;-53
2023/12/26 14:06:05;;;;;;;4.00;1.93;;;;;;;8.10;100.00;148190.03;4941447;28;20235;-53
2023/12/26 14:08:31;;;;;;;6.23;3.63;;;;;;;8.05;100.00;148177.59;4939762;28;20228;-54
2023/12/26 14:10:59;;;;;;;7.27;3.67;;;;;;;8.05;100.00;148178.84;4941002;28;20828;-54
2023/12/26 14:13:26;;;;;;;5.43;2.63;;;;;;;8.00;100.00;148166.41;4939324;28;20232;-55
2023/12/26 14:15:52;;;;;;;4.27;1.90;;;;;;;7.98;100.00;148161.44;4939466;28;20235;-55
2023/12/26 14:18:19;;;;;;;9.40;3.80;;;;;;;8.01;100.00;148167.63;4941715;28;20227;-56
2023/12/26 14:20:46;;;;;;;5.27;2.00;;;;;;;8.01;100.00;148168.91;4937759;28;20579;-54
2023/12/26 14:23:12;;;;;;;13.20;4.87;;;;;;;7.98;100.00;148161.44;4941397;28;20262;-56
2023/12/26 14:25:39;;;;;;;5.07;2.07;;;;;;;7.92;100.00;148147.78;4938118;28;20251;-54